sensor_id;sensor_type;location;lat;lon;timestamp;temperature;humidity
71177;DHT22;58877;51.992;4.504;2024-02-16T00:01:58;14.18;72.92
71177;DHT22;58877;51.992;4.504;2024-02-16T00:04:24;14.17;72.67
71177;DHT22;58877;51.992;4.504;2024-02-16T00:06:49;14.16;73.04
71177;DHT22;58877;51.992;4.504;2024-02-16T00:09:16;14.14;73.06
71177;DHT22;58877;51.992;4.504;2024-02-16T00:11:42;14.18;72.90
71177;DHT22;58877;51.992;4.504;2024-02-16T00:14:09;14.14;72.94
71177;DHT22;58877;51.992;4.504;2024-02-16T00:16:35;14.09;73.15
71177;DHT22;58877;51.992;4.504;2024-02-16T00:19:01;14.09;73.12
71177;DHT22;58877;51.992;4.504;2024-02-16T00:21:27;14.11;72.94
71177;DHT22;58877;51.992;4.504;2024-02-16T00:23:52;14.07;72.94
71177;DHT22;58877;51.992;4.504;2024-02-16T00:26:18;14.07;72.92
71177;DHT22;58877;51.992;4.504;2024-02-16T00:28:47;14.06;72.89
71177;DHT22;58877;51.992;4.504;2024-02-16T00:31:13;14.10;72.88
71177;DHT22;58877;51.992;4.504;2024-02-16T00:33:39;14.04;72.89
71177;DHT22;58877;51.992;4.504;2024-02-16T00:36:05;14.01;72.86
71177;DHT22;58877;51.992;4.504;2024-02-16T00:38:30;14.00;73.06
71177;DHT22;58877;51.992;4.504;2024-02-16T00:40:56;13.97;73.04
71177;DHT22;58877;51.992;4.504;2024-02-16T00:43:24;13.97;73.01
71177;DHT22;58877;51.992;4.504;2024-02-16T00:45:52;14.00;72.98
71177;DHT22;58877;51.992;4.504;2024-02-16T00:48:18;14.01;72.73
71177;DHT22;58877;51.992;4.504;2024-02-16T00:50:46;14.01;72.77
71177;DHT22;58877;51.992;4.504;2024-02-16T00:53:12;13.99;72.99
71177;DHT22;58877;51.992;4.504;2024-02-16T00:55:38;13.97;72.72
71177;DHT22;58877;51.992;4.504;2024-02-16T00:58:08;13.94;72.80
71177;DHT22;58877;51.992;4.504;2024-02-16T01:00:34;13.96;72.81
71177;DHT22;58877;51.992;4.504;2024-02-16T01:03:04;14.00;72.54
71177;DHT22;58877;51.992;4.504;2024-02-16T01:05:30;14.00;72.36
71177;DHT22;58877;51.992;4.504;2024-02-16T01:07:55;13.96;72.37
71177;DHT22;58877;51.992;4.504;2024-02-16T01:10:21;13.96;72.49
71177;DHT22;58877;51.992;4.504;2024-02-16T01:12:47;13.90;72.53
71177;DHT22;58877;51.992;4.504;2024-02-16T01:15:13;13.86;72.78
71177;DHT22;58877;51.992;4.504;2024-02-16T01:17:39;13.94;72.52
71177;DHT22;58877;51.992;4.504;2024-02-16T01:20:06;13.93;72.37
71177;DHT22;58877;51.992;4.504;2024-02-16T01:22:36;13.93;72.41
71177;DHT22;58877;51.992;4.504;2024-02-16T01:25:01;13.93;72.31
71177;DHT22;58877;51.992;4.504;2024-02-16T01:27:27;13.89;72.33
71177;DHT22;58877;51.992;4.504;2024-02-16T01:29:52;13.91;72.32
71177;DHT22;58877;51.992;4.504;2024-02-16T01:32:18;13.96;72.26
71177;DHT22;58877;51.992;4.504;2024-02-16T01:34:44;13.93;72.20
71177;DHT22;58877;51.992;4.504;2024-02-16T01:37:12;13.90;72.36
71177;DHT22;58877;51.992;4.504;2024-02-16T01:39:38;13.89;72.43
71177;DHT22;58877;51.992;4.504;2024-02-16T01:42:03;13.90;72.38
71177;DHT22;58877;51.992;4.504;2024-02-16T01:44:29;13.81;72.67
71177;DHT22;58877;51.992;4.504;2024-02-16T01:46:55;13.84;72.38
71177;DHT22;58877;51.992;4.504;2024-02-16T01:49:24;13.81;72.42
71177;DHT22;58877;51.992;4.504;2024-02-16T01:51:50;13.84;72.32
71177;DHT22;58877;51.992;4.504;2024-02-16T01:54:17;13.77;72.41
71177;DHT22;58877;51.992;4.504;2024-02-16T01:56:44;13.76;72.34
71177;DHT22;58877;51.992;4.504;2024-02-16T01:59:10;13.77;72.44
71177;DHT22;58877;51.992;4.504;2024-02-16T02:01:36;13.80;72.53
71177;DHT22;58877;51.992;4.504;2024-02-16T02:04:02;13.80;72.50
71177;DHT22;58877;51.992;4.504;2024-02-16T02:06:27;13.76;72.60
71177;DHT22;58877;51.992;4.504;2024-02-16T02:08:53;13.66;73.13
71177;DHT22;58877;51.992;4.504;2024-02-16T02:11:19;13.73;72.90
71177;DHT22;58877;51.992;4.504;2024-02-16T02:13:44;13.79;72.86
71177;DHT22;58877;51.992;4.504;2024-02-16T02:16:10;13.77;72.72
71177;DHT22;58877;51.992;4.504;2024-02-16T02:18:37;13.76;72.92
71177;DHT22;58877;51.992;4.504;2024-02-16T02:21:03;13.81;72.55
71177;DHT22;58877;51.992;4.504;2024-02-16T02:23:29;13.80;72.37
71177;DHT22;58877;51.992;4.504;2024-02-16T02:25:54;13.79;72.43
71177;DHT22;58877;51.992;4.504;2024-02-16T02:28:20;13.73;72.45
71177;DHT22;58877;51.992;4.504;2024-02-16T02:30:49;13.74;72.48
71177;DHT22;58877;51.992;4.504;2024-02-16T02:33:14;13.70;72.52
71177;DHT22;58877;51.992;4.504;2024-02-16T02:35:40;13.63;72.81
71177;DHT22;58877;51.992;4.504;2024-02-16T02:38:06;13.65;72.85
71177;DHT22;58877;51.992;4.504;2024-02-16T02:40:32;13.65;72.79
71177;DHT22;58877;51.992;4.504;2024-02-16T02:42:58;13.63;72.73
71177;DHT22;58877;51.992;4.504;2024-02-16T02:45:24;13.58;72.95
71177;DHT22;58877;51.992;4.504;2024-02-16T02:48:05;13.63;72.90
71177;DHT22;58877;51.992;4.504;2024-02-16T02:50:30;13.65;72.63
71177;DHT22;58877;51.992;4.504;2024-02-16T02:52:57;13.56;72.82
71177;DHT22;58877;51.992;4.504;2024-02-16T02:55:22;13.56;72.74
71177;DHT22;58877;51.992;4.504;2024-02-16T02:57:48;13.60;72.62
71177;DHT22;58877;51.992;4.504;2024-02-16T03:00:15;13.63;72.61
71177;DHT22;58877;51.992;4.504;2024-02-16T03:02:41;13.60;72.58
71177;DHT22;58877;51.992;4.504;2024-02-16T03:05:07;13.67;72.36
71177;DHT22;58877;51.992;4.504;2024-02-16T03:07:36;13.69;72.04
71177;DHT22;58877;51.992;4.504;2024-02-16T03:10:03;13.70;72.24
71177;DHT22;58877;51.992;4.504;2024-02-16T03:12:29;13.76;72.00
71177;DHT22;58877;51.992;4.504;2024-02-16T03:14:56;13.81;71.53
71177;DHT22;58877;51.992;4.504;2024-02-16T03:17:21;13.81;71.47
71177;DHT22;58877;51.992;4.504;2024-02-16T03:19:47;13.87;71.28
71177;DHT22;58877;51.992;4.504;2024-02-16T03:22:12;13.90;71.35
71177;DHT22;58877;51.992;4.504;2024-02-16T03:24:38;13.91;70.96
71177;DHT22;58877;51.992;4.504;2024-02-16T03:27:04;13.94;70.88
71177;DHT22;58877;51.992;4.504;2024-02-16T03:29:30;13.96;70.89
71177;DHT22;58877;51.992;4.504;2024-02-16T03:31:56;13.86;71.02
71177;DHT22;58877;51.992;4.504;2024-02-16T03:34:22;13.80;71.61
71177;DHT22;58877;51.992;4.504;2024-02-16T03:36:47;13.89;71.13
71177;DHT22;58877;51.992;4.504;2024-02-16T03:39:13;13.91;71.00
71177;DHT22;58877;51.992;4.504;2024-02-16T03:41:39;13.87;70.95
71177;DHT22;58877;51.992;4.504;2024-02-16T03:44:05;13.89;70.97
71177;DHT22;58877;51.992;4.504;2024-02-16T03:46:31;13.91;70.98
71177;DHT22;58877;51.992;4.504;2024-02-16T03:48:57;13.96;70.75
71177;DHT22;58877;51.992;4.504;2024-02-16T03:51:23;14.00;70.78
71177;DHT22;58877;51.992;4.504;2024-02-16T03:53:50;14.00;70.61
71177;DHT22;58877;51.992;4.504;2024-02-16T03:56:19;13.89;70.93
71177;DHT22;58877;51.992;4.504;2024-02-16T03:58:46;13.89;70.91
71177;DHT22;58877;51.992;4.504;2024-02-16T04:01:12;13.89;71.11
71177;DHT22;58877;51.992;4.504;2024-02-16T04:03:38;13.89;71.04
71177;DHT22;58877;51.992;4.504;2024-02-16T04:06:04;13.89;71.03
71177;DHT22;58877;51.992;4.504;2024-02-16T04:08:30;13.86;71.19
71177;DHT22;58877;51.992;4.504;2024-02-16T04:10:55;13.83;71.35
71177;DHT22;58877;51.992;4.504;2024-02-16T04:13:21;13.79;71.44
71177;DHT22;58877;51.992;4.504;2024-02-16T04:15:47;13.80;71.45
71177;DHT22;58877;51.992;4.504;2024-02-16T04:18:12;13.74;71.60
71177;DHT22;58877;51.992;4.504;2024-02-16T04:20:38;13.87;71.50
71177;DHT22;58877;51.992;4.504;2024-02-16T04:23:06;13.86;71.38
71177;DHT22;58877;51.992;4.504;2024-02-16T04:25:33;13.83;71.42
71177;DHT22;58877;51.992;4.504;2024-02-16T04:27:59;13.81;71.67
71177;DHT22;58877;51.992;4.504;2024-02-16T04:30:25;13.77;71.90
71177;DHT22;58877;51.992;4.504;2024-02-16T04:32:50;13.86;71.78
71177;DHT22;58877;51.992;4.504;2024-02-16T04:35:16;13.76;71.92
71177;DHT22;58877;51.992;4.504;2024-02-16T04:37:42;13.81;71.76
71177;DHT22;58877;51.992;4.504;2024-02-16T04:40:08;13.80;71.89
71177;DHT22;58877;51.992;4.504;2024-02-16T04:42:34;13.67;72.32
71177;DHT22;58877;51.992;4.504;2024-02-16T04:45:00;13.76;71.96
71177;DHT22;58877;51.992;4.504;2024-02-16T04:47:27;13.76;71.99
71177;DHT22;58877;51.992;4.504;2024-02-16T04:49:53;13.84;71.82
71177;DHT22;58877;51.992;4.504;2024-02-16T04:52:19;13.73;72.11
71177;DHT22;58877;51.992;4.504;2024-02-16T04:54:44;13.66;72.41
71177;DHT22;58877;51.992;4.504;2024-02-16T04:57:10;13.62;72.77
71177;DHT22;58877;51.992;4.504;2024-02-16T04:59:39;13.62;72.82
71177;DHT22;58877;51.992;4.504;2024-02-16T05:02:05;13.60;72.84
71177;DHT22;58877;51.992;4.504;2024-02-16T05:04:32;13.58;73.14
71177;DHT22;58877;51.992;4.504;2024-02-16T05:06:58;13.46;73.64
71177;DHT22;58877;51.992;4.504;2024-02-16T05:09:24;13.50;73.40
71177;DHT22;58877;51.992;4.504;2024-02-16T05:11:51;13.52;73.28
71177;DHT22;58877;51.992;4.504;2024-02-16T05:14:17;13.55;73.38
71177;DHT22;58877;51.992;4.504;2024-02-16T05:16:44;13.49;73.56
71177;DHT22;58877;51.992;4.504;2024-02-16T05:19:10;13.52;73.56
71177;DHT22;58877;51.992;4.504;2024-02-16T05:21:35;13.40;73.92
71177;DHT22;58877;51.992;4.504;2024-02-16T05:24:01;13.48;73.87
71177;DHT22;58877;51.992;4.504;2024-02-16T05:26:28;13.49;73.80
71177;DHT22;58877;51.992;4.504;2024-02-16T05:28:54;13.55;73.87
71177;DHT22;58877;51.992;4.504;2024-02-16T05:31:20;13.55;74.00
71177;DHT22;58877;51.992;4.504;2024-02-16T05:33:48;13.52;74.09
71177;DHT22;58877;51.992;4.504;2024-02-16T05:36:19;13.60;73.97
71177;DHT22;58877;51.992;4.504;2024-02-16T05:38:48;13.60;73.94
71177;DHT22;58877;51.992;4.504;2024-02-16T05:41:15;13.58;74.02
71177;DHT22;58877;51.992;4.504;2024-02-16T05:43:43;13.50;74.49
71177;DHT22;58877;51.992;4.504;2024-02-16T05:46:15;13.55;74.30
71177;DHT22;58877;51.992;4.504;2024-02-16T05:48:41;13.59;74.25
71177;DHT22;58877;51.992;4.504;2024-02-16T05:51:07;13.62;74.21
71177;DHT22;58877;51.992;4.504;2024-02-16T05:53:34;13.66;74.11
71177;DHT22;58877;51.992;4.504;2024-02-16T05:56:01;13.62;74.14
71177;DHT22;58877;51.992;4.504;2024-02-16T05:58:27;13.62;74.33
71177;DHT22;58877;51.992;4.504;2024-02-16T06:00:53;13.67;74.14
71177;DHT22;58877;51.992;4.504;2024-02-16T06:03:20;13.67;74.26
71177;DHT22;58877;51.992;4.504;2024-02-16T06:05:46;13.67;74.18
71177;DHT22;58877;51.992;4.504;2024-02-16T06:08:12;13.63;74.44
71177;DHT22;58877;51.992;4.504;2024-02-16T06:10:39;13.60;74.59
71177;DHT22;58877;51.992;4.504;2024-02-16T06:13:06;13.55;74.82
71177;DHT22;58877;51.992;4.504;2024-02-16T06:15:31;13.59;75.00
71177;DHT22;58877;51.992;4.504;2024-02-16T06:17:59;13.55;74.80
71177;DHT22;58877;51.992;4.504;2024-02-16T06:20:25;13.62;74.95
71177;DHT22;58877;51.992;4.504;2024-02-16T06:22:51;13.62;74.95
71177;DHT22;58877;51.992;4.504;2024-02-16T06:25:17;13.58;74.95
71177;DHT22;58877;51.992;4.504;2024-02-16T06:27:42;13.62;75.25
71177;DHT22;58877;51.992;4.504;2024-02-16T06:30:09;13.66;75.10
71177;DHT22;58877;51.992;4.504;2024-02-16T06:32:38;13.65;75.16
71177;DHT22;58877;51.992;4.504;2024-02-16T06:35:07;13.67;75.35
71177;DHT22;58877;51.992;4.504;2024-02-16T06:37:33;13.77;75.11
71177;DHT22;58877;51.992;4.504;2024-02-16T06:39:59;13.80;75.20
71177;DHT22;58877;51.992;4.504;2024-02-16T06:42:24;13.81;75.19
71177;DHT22;58877;51.992;4.504;2024-02-16T06:44:50;13.90;74.96
71177;DHT22;58877;51.992;4.504;2024-02-16T06:47:15;13.94;74.79
71177;DHT22;58877;51.992;4.504;2024-02-16T06:49:41;13.90;74.96
71177;DHT22;58877;51.992;4.504;2024-02-16T06:52:07;13.89;75.04
71177;DHT22;58877;51.992;4.504;2024-02-16T06:54:37;13.94;75.06
71177;DHT22;58877;51.992;4.504;2024-02-16T06:57:03;13.91;75.25
71177;DHT22;58877;51.992;4.504;2024-02-16T06:59:29;14.01;74.93
71177;DHT22;58877;51.992;4.504;2024-02-16T07:01:54;13.99;74.89
71177;DHT22;58877;51.992;4.504;2024-02-16T07:04:20;14.03;74.92
71177;DHT22;58877;51.992;4.504;2024-02-16T07:06:46;14.03;74.89
71177;DHT22;58877;51.992;4.504;2024-02-16T07:09:12;14.01;74.91
71177;DHT22;58877;51.992;4.504;2024-02-16T07:11:41;14.10;74.98
71177;DHT22;58877;51.992;4.504;2024-02-16T07:14:07;14.13;74.74
71177;DHT22;58877;51.992;4.504;2024-02-16T07:16:33;14.11;74.83
71177;DHT22;58877;51.992;4.504;2024-02-16T07:19:00;14.14;74.92
71177;DHT22;58877;51.992;4.504;2024-02-16T07:21:26;14.13;74.93
71177;DHT22;58877;51.992;4.504;2024-02-16T07:23:55;14.16;75.05
71177;DHT22;58877;51.992;4.504;2024-02-16T07:26:21;14.14;75.16
71177;DHT22;58877;51.992;4.504;2024-02-16T07:28:47;14.20;74.89
71177;DHT22;58877;51.992;4.504;2024-02-16T07:31:13;14.04;75.05
71177;DHT22;58877;51.992;4.504;2024-02-16T07:33:40;14.18;75.02
71177;DHT22;58877;51.992;4.504;2024-02-16T07:36:15;14.17;75.10
71177;DHT22;58877;51.992;4.504;2024-02-16T07:38:47;14.24;75.17
71177;DHT22;58877;51.992;4.504;2024-02-16T07:41:25;14.27;75.28
71177;DHT22;58877;51.992;4.504;2024-02-16T07:43:56;14.30;75.34
71177;DHT22;58877;51.992;4.504;2024-02-16T07:46:23;14.37;75.09
71177;DHT22;58877;51.992;4.504;2024-02-16T07:48:55;14.44;74.67
71177;DHT22;58877;51.992;4.504;2024-02-16T07:51:24;14.55;74.48
71177;DHT22;58877;51.992;4.504;2024-02-16T07:53:50;14.49;74.52
71177;DHT22;58877;51.992;4.504;2024-02-16T07:56:15;14.38;74.82
71177;DHT22;58877;51.992;4.504;2024-02-16T07:58:42;14.40;75.08
71177;DHT22;58877;51.992;4.504;2024-02-16T08:01:17;14.34;75.30
71177;DHT22;58877;51.992;4.504;2024-02-16T08:03:43;14.33;75.09
71177;DHT22;58877;51.992;4.504;2024-02-16T08:06:08;14.28;75.52
71177;DHT22;58877;51.992;4.504;2024-02-16T08:08:39;14.27;75.62
71177;DHT22;58877;51.992;4.504;2024-02-16T08:11:08;14.28;75.61
71177;DHT22;58877;51.992;4.504;2024-02-16T08:13:34;14.34;75.56
71177;DHT22;58877;51.992;4.504;2024-02-16T08:16:00;14.34;75.58
71177;DHT22;58877;51.992;4.504;2024-02-16T08:18:28;14.23;75.77
71177;DHT22;58877;51.992;4.504;2024-02-16T08:20:54;14.27;75.99
71177;DHT22;58877;51.992;4.504;2024-02-16T08:23:20;14.25;75.93
71177;DHT22;58877;51.992;4.504;2024-02-16T08:25:49;14.31;75.74
71177;DHT22;58877;51.992;4.504;2024-02-16T08:28:15;14.31;75.78
71177;DHT22;58877;51.992;4.504;2024-02-16T08:30:58;14.24;76.26
71177;DHT22;58877;51.992;4.504;2024-02-16T08:33:26;14.21;76.33
71177;DHT22;58877;51.992;4.504;2024-02-16T08:35:55;14.18;76.86
71177;DHT22;58877;51.992;4.504;2024-02-16T08:38:27;14.10;77.54
71177;DHT22;58877;51.992;4.504;2024-02-16T08:41:05;14.01;77.99
71177;DHT22;58877;51.992;4.504;2024-02-16T08:43:31;14.07;78.16
71177;DHT22;58877;51.992;4.504;2024-02-16T08:46:03;14.16;78.08
71177;DHT22;58877;51.992;4.504;2024-02-16T08:48:32;14.10;78.15
71177;DHT22;58877;51.992;4.504;2024-02-16T08:51:07;14.07;78.69
71177;DHT22;58877;51.992;4.504;2024-02-16T08:53:40;13.94;79.02
71177;DHT22;58877;51.992;4.504;2024-02-16T08:56:19;13.77;79.24
71177;DHT22;58877;51.992;4.504;2024-02-16T08:58:50;13.79;79.51
71177;DHT22;58877;51.992;4.504;2024-02-16T09:04:21;13.66;79.74
71177;DHT22;58877;51.992;4.504;2024-02-16T09:06:51;13.49;80.16
71177;DHT22;58877;51.992;4.504;2024-02-16T09:09:20;13.60;80.47
71177;DHT22;58877;51.992;4.504;2024-02-16T09:11:46;13.58;80.23
71177;DHT22;58877;51.992;4.504;2024-02-16T09:14:33;13.48;80.44
71177;DHT22;58877;51.992;4.504;2024-02-16T09:16:59;13.56;80.52
71177;DHT22;58877;51.992;4.504;2024-02-16T09:19:30;13.65;80.41
71177;DHT22;58877;51.992;4.504;2024-02-16T09:22:00;13.74;79.90
71177;DHT22;58877;51.992;4.504;2024-02-16T09:24:46;13.76;80.12
71177;DHT22;58877;51.992;4.504;2024-02-16T09:27:22;13.66;80.30
71177;DHT22;58877;51.992;4.504;2024-02-16T09:29:49;13.45;80.90
71177;DHT22;58877;51.992;4.504;2024-02-16T09:32:15;13.40;81.27
71177;DHT22;58877;51.992;4.504;2024-02-16T09:34:52;13.35;81.57
71177;DHT22;58877;51.992;4.504;2024-02-16T09:37:26;13.28;82.21
71177;DHT22;58877;51.992;4.504;2024-02-16T09:39:54;13.18;82.20
71177;DHT22;58877;51.992;4.504;2024-02-16T09:42:25;13.06;82.87
71177;DHT22;58877;51.992;4.504;2024-02-16T09:44:56;12.88;84.10
71177;DHT22;58877;51.992;4.504;2024-02-16T09:47:23;12.94;84.29
71177;DHT22;58877;51.992;4.504;2024-02-16T09:49:54;12.99;84.48
71177;DHT22;58877;51.992;4.504;2024-02-16T09:52:21;12.75;85.13
71177;DHT22;58877;51.992;4.504;2024-02-16T09:54:48;12.81;85.56
71177;DHT22;58877;51.992;4.504;2024-02-16T09:57:19;12.63;86.38
71177;DHT22;58877;51.992;4.504;2024-02-16T09:59:45;12.58;86.67
71177;DHT22;58877;51.992;4.504;2024-02-16T10:02:10;12.58;86.76
71177;DHT22;58877;51.992;4.504;2024-02-16T10:04:36;12.44;87.38
71177;DHT22;58877;51.992;4.504;2024-02-16T10:07:02;12.48;87.54
71177;DHT22;58877;51.992;4.504;2024-02-16T10:09:29;12.40;87.88
71177;DHT22;58877;51.992;4.504;2024-02-16T10:11:55;12.51;87.86
71177;DHT22;58877;51.992;4.504;2024-02-16T10:14:25;12.53;87.84
71177;DHT22;58877;51.992;4.504;2024-02-16T10:17:05;12.54;87.78
71177;DHT22;58877;51.992;4.504;2024-02-16T10:19:40;12.64;87.67
71177;DHT22;58877;51.992;4.504;2024-02-16T10:22:12;12.67;87.26
71177;DHT22;58877;51.992;4.504;2024-02-16T10:24:39;12.64;87.31
71177;DHT22;58877;51.992;4.504;2024-02-16T10:27:20;12.69;87.23
71177;DHT22;58877;51.992;4.504;2024-02-16T10:29:54;12.75;87.14
71177;DHT22;58877;51.992;4.504;2024-02-16T10:32:20;12.69;86.62
71177;DHT22;58877;51.992;4.504;2024-02-16T10:34:47;12.60;87.23
71177;DHT22;58877;51.992;4.504;2024-02-16T10:37:16;12.57;87.22
71177;DHT22;58877;51.992;4.504;2024-02-16T10:39:43;12.54;87.42
71177;DHT22;58877;51.992;4.504;2024-02-16T10:42:15;12.61;87.28
71177;DHT22;58877;51.992;4.504;2024-02-16T10:44:52;12.61;87.03
71177;DHT22;58877;51.992;4.504;2024-02-16T10:47:20;12.54;87.22
71177;DHT22;58877;51.992;4.504;2024-02-16T10:49:47;12.54;87.32
71177;DHT22;58877;51.992;4.504;2024-02-16T10:52:25;12.47;87.44
71177;DHT22;58877;51.992;4.504;2024-02-16T10:54:54;12.45;87.60
71177;DHT22;58877;51.992;4.504;2024-02-16T10:57:27;12.44;87.84
71177;DHT22;58877;51.992;4.504;2024-02-16T11:00:15;12.33;88.11
71177;DHT22;58877;51.992;4.504;2024-02-16T11:02:55;12.20;88.45
71177;DHT22;58877;51.992;4.504;2024-02-16T11:05:43;12.30;88.62
71177;DHT22;58877;51.992;4.504;2024-02-16T11:08:16;12.37;88.63
71177;DHT22;58877;51.992;4.504;2024-02-16T11:13:25;12.19;88.84
71177;DHT22;58877;51.992;4.504;2024-02-16T11:18:27;12.00;89.32
71177;DHT22;58877;51.992;4.504;2024-02-16T11:20:52;12.03;89.38
71177;DHT22;58877;51.992;4.504;2024-02-16T11:23:28;11.93;89.27
71177;DHT22;58877;51.992;4.504;2024-02-16T11:26:04;12.03;89.55
71177;DHT22;58877;51.992;4.504;2024-02-16T11:28:35;12.01;88.81
71177;DHT22;58877;51.992;4.504;2024-02-16T11:31:01;12.01;89.21
71177;DHT22;58877;51.992;4.504;2024-02-16T11:33:29;12.06;89.30
71177;DHT22;58877;51.992;4.504;2024-02-16T11:36:00;12.20;89.17
71177;DHT22;58877;51.992;4.504;2024-02-16T11:38:31;12.34;88.67
71177;DHT22;58877;51.992;4.504;2024-02-16T11:41:03;12.33;88.58
71177;DHT22;58877;51.992;4.504;2024-02-16T11:43:40;12.55;88.29
71177;DHT22;58877;51.992;4.504;2024-02-16T11:46:11;12.53;87.92
71177;DHT22;58877;51.992;4.504;2024-02-16T11:48:39;12.44;88.47
71177;DHT22;58877;51.992;4.504;2024-02-16T11:51:05;12.36;88.74
71177;DHT22;58877;51.992;4.504;2024-02-16T11:53:31;12.51;88.87
71177;DHT22;58877;51.992;4.504;2024-02-16T11:55:57;12.64;88.34
71177;DHT22;58877;51.992;4.504;2024-02-16T11:58:24;12.53;87.99
71177;DHT22;58877;51.992;4.504;2024-02-16T12:00:51;12.55;87.98
71177;DHT22;58877;51.992;4.504;2024-02-16T12:03:21;12.67;87.53
71177;DHT22;58877;51.992;4.504;2024-02-16T12:05:54;12.63;87.61
71177;DHT22;58877;51.992;4.504;2024-02-16T12:08:20;12.63;87.41
71177;DHT22;58877;51.992;4.504;2024-02-16T12:10:51;12.78;87.05
71177;DHT22;58877;51.992;4.504;2024-02-16T12:13:19;12.85;87.30
71177;DHT22;58877;51.992;4.504;2024-02-16T12:15:50;12.74;86.90
71177;DHT22;58877;51.992;4.504;2024-02-16T12:18:22;12.78;87.15
71177;DHT22;58877;51.992;4.504;2024-02-16T12:21:05;12.84;86.64
71177;DHT22;58877;51.992;4.504;2024-02-16T12:23:36;13.05;87.05
71177;DHT22;58877;51.992;4.504;2024-02-16T12:26:02;13.20;86.11
71177;DHT22;58877;51.992;4.504;2024-02-16T12:28:30;12.84;86.54
71177;DHT22;58877;51.992;4.504;2024-02-16T12:31:02;12.83;86.65
71177;DHT22;58877;51.992;4.504;2024-02-16T12:33:28;12.77;87.01
71177;DHT22;58877;51.992;4.504;2024-02-16T12:35:54;12.64;87.00
71177;DHT22;58877;51.992;4.504;2024-02-16T12:38:24;12.60;87.77
71177;DHT22;58877;51.992;4.504;2024-02-16T12:40:50;12.60;87.62
71177;DHT22;58877;51.992;4.504;2024-02-16T12:43:15;12.60;87.76
71177;DHT22;58877;51.992;4.504;2024-02-16T12:45:41;12.73;87.92
71177;DHT22;58877;51.992;4.504;2024-02-16T12:48:07;12.73;87.35
71177;DHT22;58877;51.992;4.504;2024-02-16T12:50:36;12.75;87.79
71177;DHT22;58877;51.992;4.504;2024-02-16T12:53:04;12.80;87.55
71177;DHT22;58877;51.992;4.504;2024-02-16T12:55:30;12.87;87.21
71177;DHT22;58877;51.992;4.504;2024-02-16T12:57:56;12.89;87.02
71177;DHT22;58877;51.992;4.504;2024-02-16T13:00:22;12.84;86.85
71177;DHT22;58877;51.992;4.504;2024-02-16T13:02:48;12.91;86.90
71177;DHT22;58877;51.992;4.504;2024-02-16T13:05:14;12.81;86.71
71177;DHT22;58877;51.992;4.504;2024-02-16T13:07:40;12.89;86.74
71177;DHT22;58877;51.992;4.504;2024-02-16T13:10:09;13.02;86.36
71177;DHT22;58877;51.992;4.504;2024-02-16T13:12:38;12.96;86.25
71177;DHT22;58877;51.992;4.504;2024-02-16T13:15:07;13.11;85.73
71177;DHT22;58877;51.992;4.504;2024-02-16T13:17:36;13.28;85.76
71177;DHT22;58877;51.992;4.504;2024-02-16T13:20:02;13.45;85.34
71177;DHT22;58877;51.992;4.504;2024-02-16T13:22:38;13.50;84.87
71177;DHT22;58877;51.992;4.504;2024-02-16T13:25:05;13.48;84.44
71177;DHT22;58877;51.992;4.504;2024-02-16T13:27:33;13.34;84.21
71177;DHT22;58877;51.992;4.504;2024-02-16T13:29:59;13.29;84.08
71177;DHT22;58877;51.992;4.504;2024-02-16T13:32:25;13.32;84.42
71177;DHT22;58877;51.992;4.504;2024-02-16T13:34:52;13.40;84.58
71177;DHT22;58877;51.992;4.504;2024-02-16T13:37:18;13.55;84.21
71177;DHT22;58877;51.992;4.504;2024-02-16T13:39:45;13.42;84.02
71177;DHT22;58877;51.992;4.504;2024-02-16T13:42:17;13.40;84.25
71177;DHT22;58877;51.992;4.504;2024-02-16T13:44:43;13.46;83.08
71177;DHT22;58877;51.992;4.504;2024-02-16T13:47:09;13.50;83.67
71177;DHT22;58877;51.992;4.504;2024-02-16T13:49:34;13.63;83.43
71177;DHT22;58877;51.992;4.504;2024-02-16T13:52:01;13.65;83.01
71177;DHT22;58877;51.992;4.504;2024-02-16T13:54:27;13.84;82.85
71177;DHT22;58877;51.992;4.504;2024-02-16T13:57:04;13.86;82.19
71177;DHT22;58877;51.992;4.504;2024-02-16T13:59:45;13.63;82.74
71177;DHT22;58877;51.992;4.504;2024-02-16T14:02:15;13.59;82.65
71177;DHT22;58877;51.992;4.504;2024-02-16T14:04:47;13.46;82.86
71177;DHT22;58877;51.992;4.504;2024-02-16T14:07:21;13.45;83.18
71177;DHT22;58877;51.992;4.504;2024-02-16T14:09:54;13.38;83.08
71177;DHT22;58877;51.992;4.504;2024-02-16T14:12:23;13.38;83.23
71177;DHT22;58877;51.992;4.504;2024-02-16T14:15:02;13.28;83.00
71177;DHT22;58877;51.992;4.504;2024-02-16T14:17:43;13.30;83.33
71177;DHT22;58877;51.992;4.504;2024-02-16T14:20:18;13.19;83.48
71177;DHT22;58877;51.992;4.504;2024-02-16T14:22:53;13.22;83.81
71177;DHT22;58877;51.992;4.504;2024-02-16T14:25:34;13.36;83.23
71177;DHT22;58877;51.992;4.504;2024-02-16T14:28:05;13.28;83.22
71177;DHT22;58877;51.992;4.504;2024-02-16T14:30:34;13.18;83.26
71177;DHT22;58877;51.992;4.504;2024-02-16T14:33:11;13.32;83.03
71177;DHT22;58877;51.992;4.504;2024-02-16T14:35:38;13.34;83.09
71177;DHT22;58877;51.992;4.504;2024-02-16T14:38:11;13.23;83.03
71177;DHT22;58877;51.992;4.504;2024-02-16T14:40:48;13.42;82.92
71177;DHT22;58877;51.992;4.504;2024-02-16T14:43:18;13.58;83.00
71177;DHT22;58877;51.992;4.504;2024-02-16T14:45:47;13.69;82.22
71177;DHT22;58877;51.992;4.504;2024-02-16T14:48:35;13.62;82.14
71177;DHT22;58877;51.992;4.504;2024-02-16T14:51:21;13.43;82.62
71177;DHT22;58877;51.992;4.504;2024-02-16T14:53:47;13.49;82.46
71177;DHT22;58877;51.992;4.504;2024-02-16T14:56:14;13.39;82.49
71177;DHT22;58877;51.992;4.504;2024-02-16T14:58:50;13.38;82.62
71177;DHT22;58877;51.992;4.504;2024-02-16T15:01:28;13.35;82.44
71177;DHT22;58877;51.992;4.504;2024-02-16T15:03:57;13.40;82.18
71177;DHT22;58877;51.992;4.504;2024-02-16T15:06:23;13.46;82.01
71177;DHT22;58877;51.992;4.504;2024-02-16T15:08:50;13.49;82.08
71177;DHT22;58877;51.992;4.504;2024-02-16T15:11:16;13.45;81.98
71177;DHT22;58877;51.992;4.504;2024-02-16T15:13:43;13.34;82.24
71177;DHT22;58877;51.992;4.504;2024-02-16T15:16:11;13.30;82.55
71177;DHT22;58877;51.992;4.504;2024-02-16T15:18:37;13.38;82.37
71177;DHT22;58877;51.992;4.504;2024-02-16T15:21:05;13.42;82.18
71177;DHT22;58877;51.992;4.504;2024-02-16T15:23:33;13.39;82.42
71177;DHT22;58877;51.992;4.504;2024-02-16T15:26:10;13.49;81.97
71177;DHT22;58877;51.992;4.504;2024-02-16T15:28:36;13.39;82.02
71177;DHT22;58877;51.992;4.504;2024-02-16T15:31:04;13.29;81.61
71177;DHT22;58877;51.992;4.504;2024-02-16T15:33:30;13.06;81.92
71177;DHT22;58877;51.992;4.504;2024-02-16T15:35:56;13.05;81.95
71177;DHT22;58877;51.992;4.504;2024-02-16T15:38:24;13.16;82.09
71177;DHT22;58877;51.992;4.504;2024-02-16T15:40:51;13.19;81.74
71177;DHT22;58877;51.992;4.504;2024-02-16T15:43:21;13.23;81.91
71177;DHT22;58877;51.992;4.504;2024-02-16T15:45:47;13.12;81.98